Terminal Aerodrome Forecast
Issued by NWS

Home | Current Version | Previous Version | Text Only | Print | Product List | Glossary On
Versions: 1 2 3 4 5 6 7 8 9 10 11 12 13 14 15 16 17 18 19 20 21 22 23 24 25 26 27 28 29 30 31 32 33 34 35 36 37 38
000
FTAK31 PANC 250524
TAFAHO
TAF
PAHO 250524Z 2506/2606 26005KT P6SM -RA SCT030 OVC045
      TEMPO 2506/2509 BKN030
     FM250900 VRB02KT P6SM -RA FEW015 OVC025
     FM251300 VRB02KT P6SM -RA BKN015
     FM252100 26006KT P6SM -RA SCT015 OVC030
     FM260300 VRB04KT P6SM VCSH SCT030 BKN045=

USA.gov is the U.S. government's official web portal to all federal, state and local government web resources and services.